createdAt,value
2016-10-11T00:00:28.690Z,20.22
2016-10-11T00:01:28.668Z,20.2
2016-10-11T00:02:28.655Z,20.17
2016-10-11T00:03:28.317Z,20.17
2016-10-11T00:04:28.622Z,20.23
2016-10-11T00:05:28.607Z,20.2
2016-10-11T00:06:28.582Z,20.16
2016-10-11T00:07:28.575Z,20.2
2016-10-11T00:08:28.245Z,20.17
2016-10-11T00:09:28.548Z,20.25
2016-10-11T00:10:28.209Z,20.23
2016-10-11T00:11:28.508Z,20.27
2016-10-11T00:12:27.862Z,20.22
2016-10-11T00:13:28.476Z,20.19
2016-10-11T00:14:28.462Z,20.2
2016-10-11T00:15:28.447Z,20.17
2016-10-11T00:16:28.430Z,20.25
2016-10-11T00:17:28.112Z,20.16
2016-10-11T00:18:28.391Z,20.17
2016-10-11T00:19:28.370Z,20.17
2016-10-11T00:20:28.363Z,20.17
2016-10-11T00:21:28.348Z,20.15
2016-10-11T00:22:28.010Z,20.13
2016-10-11T00:23:28.318Z,20.13
2016-10-11T00:24:28.302Z,20.13
2016-10-11T00:25:28.279Z,20.15
2016-10-11T00:26:27.637Z,20.17
2016-10-11T00:27:28.262Z,20.12
2016-10-11T00:28:28.253Z,20.17
2016-10-11T00:29:28.214Z,20.22
2016-10-11T00:30:28.220Z,20.15
2016-10-11T00:31:28.183Z,20.19
2016-10-11T00:32:28.174Z,20.02
2016-10-11T00:33:28.155Z,20.07
2016-10-11T00:34:28.130Z,20.1
2016-10-11T00:35:27.803Z,20.15
2016-10-11T00:36:27.792Z,20.1
2016-10-11T00:37:28.085Z,20.13
2016-10-11T00:38:28.079Z,20.1
2016-10-11T00:39:27.740Z,20.15
2016-10-11T00:40:28.037Z,20.05
2016-10-11T00:41:28.025Z,20.07
2016-10-11T00:42:28.008Z,20.15
2016-10-11T00:43:28.001Z,20.07
2016-10-11T00:44:27.972Z,20.08
2016-10-11T00:45:27.959Z,20.12
2016-10-11T00:46:27.954Z,20.08
2016-10-11T00:47:27.935Z,20.04
2016-10-11T00:48:27.605Z,20.12
2016-10-11T00:49:27.892Z,20.19
2016-10-11T00:50:27.881Z,20.04
2016-10-11T00:51:27.860Z,20.16
2016-10-11T00:52:27.845Z,20.04
2016-10-11T00:53:27.827Z,20.13
2016-10-11T00:54:27.816Z,20.12
2016-10-11T00:55:27.794Z,20.13
2016-10-11T00:56:27.774Z,20.12
2016-10-11T00:57:27.454Z,20.1
2016-10-11T00:58:27.755Z,20.13
2016-10-11T00:59:27.732Z,20.13
2016-10-11T01:00:27.397Z,20.04
2016-10-11T01:01:27.706Z,20.17
2016-10-11T01:02:27.372Z,20.07
2016-10-11T01:03:27.359Z,20.12
2016-10-11T01:04:27.022Z,20.16
2016-10-11T01:05:27.639Z,20.13
2016-10-11T01:06:27.310Z,20.1
2016-10-11T01:07:27.290Z,20.15
2016-10-11T01:08:27.269Z,20.08
2016-10-11T01:09:27.578Z,20.07
2016-10-11T01:10:27.553Z,20.05
2016-10-11T01:11:27.541Z,20.08
2016-10-11T01:12:27.524Z,20.04
2016-10-11T01:13:27.512Z,20.1
2016-10-11T01:14:27.496Z,20.1
2016-10-11T01:15:27.475Z,19.95
2016-10-11T01:16:27.459Z,20.01
2016-10-11T01:17:27.456Z,20.04
2016-10-11T01:18:27.111Z,20
2016-10-11T01:19:27.100Z,19.95
2016-10-11T01:20:27.080Z,19.98
2016-10-11T01:21:27.386Z,19.98
2016-10-11T01:22:27.052Z,20.1
2016-10-11T01:23:27.349Z,20.01
2016-10-11T01:24:27.328Z,19.98
2016-10-11T01:25:27.327Z,19.97
2016-10-11T01:26:27.298Z,20.12
2016-10-11T01:27:26.966Z,19.98
2016-10-11T01:28:27.261Z,20.02
2016-10-11T01:29:27.258Z,20.04
2016-10-11T01:30:27.231Z,19.97
2016-10-11T01:31:26.902Z,19.95
2016-10-11T01:32:26.887Z,19.95
2016-10-11T01:33:26.867Z,20.01
2016-10-11T01:34:27.166Z,20.01
2016-10-11T01:35:27.146Z,20.12
2016-10-11T01:36:27.136Z,20.1
2016-10-11T01:37:27.115Z,19.98
2016-10-11T01:38:27.106Z,19.95
2016-10-11T01:39:27.087Z,19.9
2016-10-11T01:40:27.079Z,19.9
2016-10-11T01:41:27.054Z,19.95
2016-10-11T01:42:27.041Z,19.97
2016-10-11T01:43:26.716Z,19.89
2016-10-11T01:44:27.010Z,20.01
2016-10-11T01:45:26.991Z,19.94
2016-10-11T01:46:26.658Z,20.02
2016-10-11T01:47:26.963Z,19.97
2016-10-11T01:48:26.940Z,19.97
2016-10-11T01:49:26.934Z,19.97
2016-10-11T01:50:26.909Z,19.97
2016-10-11T01:51:26.892Z,19.98
2016-10-11T01:52:26.886Z,19.98
2016-10-11T01:53:26.543Z,20.01
2016-10-11T01:54:26.842Z,19.95
2016-10-11T01:55:26.831Z,19.97
2016-10-11T01:56:26.808Z,19.98
2016-10-11T01:57:26.803Z,19.86
2016-10-11T01:58:26.780Z,19.85
2016-10-11T01:59:26.761Z,19.95
2016-10-11T02:00:26.747Z,19.9
2016-10-11T02:01:26.730Z,19.87
2016-10-11T02:02:26.710Z,19.86
2016-10-11T02:03:26.698Z,19.82
2016-10-11T02:04:26.686Z,19.87
2016-10-11T02:05:26.659Z,19.89
2016-10-11T02:06:26.651Z,19.89
2016-10-11T02:07:26.637Z,19.86
2016-10-11T02:08:26.626Z,19.8
2016-10-11T02:09:26.598Z,19.79
2016-10-11T02:10:26.581Z,19.82
2016-10-11T02:11:26.566Z,19.83
2016-10-11T02:12:26.549Z,19.8
2016-10-11T02:13:26.232Z,19.82
2016-10-11T02:14:26.525Z,19.89
2016-10-11T02:15:26.503Z,19.78
2016-10-11T02:16:26.488Z,19.86
2016-10-11T02:17:26.471Z,19.83
2016-10-11T02:18:26.458Z,19.8
2016-10-11T02:19:26.435Z,19.82
2016-10-11T02:20:26.419Z,19.86
2016-10-11T02:21:26.398Z,19.8
2016-10-11T02:22:26.389Z,19.85
2016-10-11T02:23:26.056Z,19.8
2016-10-11T02:24:26.048Z,19.86
2016-10-11T02:25:26.340Z,19.85
2016-10-11T02:26:26.326Z,19.79
2016-10-11T02:27:26.303Z,19.87
2016-10-11T02:28:26.306Z,19.83
2016-10-11T02:29:25.652Z,19.87
2016-10-11T02:30:26.267Z,19.8
2016-10-11T02:31:25.928Z,19.85
2016-10-11T02:32:26.223Z,19.78
2016-10-11T02:33:26.210Z,19.83
2016-10-11T02:34:26.195Z,19.79
2016-10-11T02:35:26.177Z,19.75
2016-10-11T02:36:26.162Z,19.78
2016-10-11T02:37:26.147Z,19.82
2016-10-11T02:38:26.126Z,19.79
2016-10-11T02:39:25.805Z,19.79
2016-10-11T02:40:26.096Z,19.86
2016-10-11T02:41:26.083Z,19.8
2016-10-11T02:42:26.089Z,19.78
2016-10-11T02:43:26.049Z,19.8
2016-10-11T02:44:26.037Z,19.79
2016-10-11T02:45:26.015Z,19.83
2016-10-11T02:46:26.004Z,19.79
2016-10-11T02:47:25.985Z,19.8
2016-10-11T02:48:25.976Z,19.82
2016-10-11T02:49:25.947Z,19.78
2016-10-11T02:50:25.940Z,19.83
2016-10-11T02:51:25.922Z,19.82
2016-10-11T02:52:25.914Z,19.83
2016-10-11T02:53:25.878Z,19.82
2016-10-11T02:54:25.875Z,19.82
2016-10-11T02:55:25.857Z,19.86
2016-10-11T02:56:25.832Z,19.8
2016-10-11T02:57:25.822Z,19.8
2016-10-11T02:58:25.810Z,19.85
2016-10-11T02:59:25.792Z,19.85
2016-10-11T03:00:25.767Z,19.89
2016-10-11T03:01:25.440Z,19.79
2016-10-11T03:02:25.741Z,19.89
2016-10-11T03:03:25.723Z,19.8
2016-10-11T03:04:25.709Z,19.83
2016-10-11T03:05:25.695Z,19.79
2016-10-11T03:06:25.676Z,19.8
2016-10-11T03:07:25.653Z,19.87
2016-10-11T03:08:25.643Z,19.78
2016-10-11T03:09:25.625Z,19.83
2016-10-11T03:10:25.611Z,19.82
2016-10-11T03:11:25.584Z,19.78
2016-10-11T03:12:25.576Z,19.79
2016-10-11T03:13:25.556Z,19.82
2016-10-11T03:14:25.545Z,19.82
2016-10-11T03:15:25.527Z,19.79
2016-10-11T03:16:25.510Z,19.85
2016-10-11T03:17:25.491Z,19.82
2016-10-11T03:18:25.471Z,19.8
2016-10-11T03:19:25.473Z,19.71
2016-10-11T03:20:25.439Z,19.79
2016-10-11T03:21:25.434Z,19.71
2016-10-11T03:22:25.413Z,19.76
2016-10-11T03:23:25.400Z,19.79
2016-10-11T03:24:25.391Z,19.75
2016-10-11T03:25:25.047Z,19.72
2016-10-11T03:26:25.026Z,19.71
2016-10-11T03:27:25.008Z,19.71
2016-10-11T03:28:25.311Z,19.75
2016-10-11T03:29:25.294Z,19.75
2016-10-11T03:30:25.276Z,19.64
2016-10-11T03:31:25.260Z,19.71
2016-10-11T03:32:25.263Z,19.67
2016-10-11T03:33:25.233Z,19.67
2016-10-11T03:34:25.222Z,19.7
2016-10-11T03:35:25.203Z,19.7
2016-10-11T03:36:25.186Z,19.76
2016-10-11T03:37:25.171Z,19.7
2016-10-11T03:38:24.837Z,19.68
2016-10-11T03:39:25.140Z,19.64
2016-10-11T03:40:25.120Z,19.61
2016-10-11T03:41:24.782Z,19.67
2016-10-11T03:42:25.085Z,19.67
2016-10-11T03:43:25.067Z,19.68
2016-10-11T03:44:25.058Z,19.71
2016-10-11T03:45:25.032Z,19.65
2016-10-11T03:46:25.024Z,19.62
2016-10-11T03:47:25.012Z,19.71
2016-10-11T03:48:24.985Z,19.78
2016-10-11T03:49:24.972Z,19.68
2016-10-11T03:50:24.950Z,19.64
2016-10-11T03:51:24.933Z,19.71
2016-10-11T03:52:24.928Z,19.67
2016-10-11T03:53:24.903Z,19.67
2016-10-11T03:54:24.879Z,19.7
2016-10-11T03:55:24.871Z,19.72
2016-10-11T03:56:24.861Z,19.64
2016-10-11T03:57:24.838Z,19.71
2016-10-11T03:58:24.829Z,19.75
2016-10-11T03:59:24.803Z,19.67
2016-10-11T04:00:24.788Z,19.68
2016-10-11T04:01:24.771Z,19.68
2016-10-11T04:02:24.763Z,19.57
2016-10-11T04:03:24.742Z,19.64
2016-10-11T04:04:24.723Z,19.64
2016-10-11T04:05:24.396Z,19.67
2016-10-11T04:06:24.689Z,19.79
2016-10-11T04:07:24.677Z,19.87
2016-10-11T04:08:24.654Z,19.92
2016-10-11T04:09:24.639Z,19.95
2016-10-11T04:10:24.621Z,20.1
2016-10-11T04:11:24.613Z,20.08
2016-10-11T04:12:24.595Z,20.13
2016-10-11T04:13:24.576Z,20.22
2016-10-11T04:14:24.567Z,20.27
2016-10-11T04:15:24.546Z,20.37
2016-10-11T04:16:24.536Z,20.35
2016-10-11T04:17:24.506Z,20.5
2016-10-11T04:18:24.501Z,20.51
2016-10-11T04:19:24.480Z,20.66
2016-10-11T04:20:24.469Z,20.75
2016-10-11T04:21:24.442Z,20.76
2016-10-11T04:22:24.425Z,20.81
2016-10-11T04:23:24.416Z,20.88
2016-10-11T04:24:24.386Z,20.87
2016-10-11T04:25:24.379Z,20.91
2016-10-11T04:26:24.360Z,20.96
2016-10-11T04:27:24.350Z,20.96
2016-10-11T04:28:24.330Z,21.05
2016-10-11T04:29:24.310Z,21.06
2016-10-11T04:30:24.303Z,21.01
2016-10-11T04:31:24.288Z,21.05
2016-10-11T04:32:24.267Z,21.06
2016-10-11T04:33:24.246Z,21.11
2016-10-11T04:34:24.236Z,21.16
2016-10-11T04:35:24.217Z,21.11
2016-10-11T04:36:24.199Z,21.13
2016-10-11T04:37:24.182Z,21.08
2016-10-11T04:38:24.173Z,21.06
2016-10-11T04:39:24.156Z,21.13
2016-10-11T04:40:23.823Z,21.11
2016-10-11T04:41:24.126Z,21.05
2016-10-11T04:42:24.126Z,21.09
2016-10-11T04:43:24.091Z,21.11
2016-10-11T04:44:24.068Z,21.09
2016-10-11T04:45:24.058Z,21
2016-10-11T04:46:24.037Z,21.05
2016-10-11T04:47:24.022Z,21.09
2016-10-11T04:48:24.013Z,21.03
2016-10-11T04:49:23.999Z,21.05
2016-10-11T04:50:23.991Z,21.03
2016-10-11T04:51:23.669Z,21.01
2016-10-11T04:52:23.946Z,20.96
2016-10-11T04:53:23.935Z,21.06
2016-10-11T04:54:23.907Z,21.01
2016-10-11T04:55:23.899Z,21.03
2016-10-11T04:56:23.882Z,21
2016-10-11T04:57:23.870Z,21.01
2016-10-11T04:58:23.859Z,21
2016-10-11T04:59:23.517Z,20.98
2016-10-11T05:00:23.821Z,21.03
2016-10-11T05:01:23.819Z,20.98
2016-10-11T05:02:23.780Z,21
2016-10-11T05:03:23.776Z,20.97
2016-10-11T05:04:23.443Z,21.06
2016-10-11T05:05:23.732Z,20.96
2016-10-11T05:06:23.733Z,20.98
2016-10-11T05:07:23.705Z,21
2016-10-11T05:08:23.683Z,20.93
2016-10-11T05:09:23.361Z,20.96
2016-10-11T05:10:23.664Z,21.01
2016-10-11T05:11:23.643Z,20.97
2016-10-11T05:12:23.630Z,20.93
2016-10-11T05:13:23.300Z,20.96
2016-10-11T05:14:23.599Z,21
2016-10-11T05:15:23.580Z,20.96
2016-10-11T05:16:23.561Z,20.93
2016-10-11T05:17:23.549Z,20.88
2016-10-11T05:18:23.528Z,20.9
2016-10-11T05:19:23.513Z,20.97
2016-10-11T05:20:23.498Z,20.97
2016-10-11T05:21:23.485Z,20.97
2016-10-11T05:22:23.465Z,20.88
2016-10-11T05:23:23.456Z,20.82
2016-10-11T05:24:23.431Z,20.94
2016-10-11T05:25:23.428Z,20.85
2016-10-11T05:26:23.405Z,20.87
2016-10-11T05:27:23.396Z,20.91
2016-10-11T05:28:23.372Z,20.88
2016-10-11T05:29:23.357Z,20.91
2016-10-11T05:30:23.338Z,20.88
2016-10-11T05:31:23.320Z,20.9
2016-10-11T05:32:23.327Z,20.9
2016-10-11T05:33:23.288Z,20.9
2016-10-11T05:34:23.287Z,20.91
2016-10-11T05:35:23.257Z,20.96
2016-10-11T05:36:23.252Z,21
2016-10-11T05:37:23.227Z,20.88
2016-10-11T05:38:23.216Z,20.88
2016-10-11T05:39:23.201Z,20.93
2016-10-11T05:40:23.191Z,20.9
2016-10-11T05:41:23.164Z,20.91
2016-10-11T05:42:23.151Z,20.9
2016-10-11T05:43:23.139Z,20.9
2016-10-11T05:44:23.117Z,20.9
2016-10-11T05:45:23.099Z,20.97
2016-10-11T05:46:23.096Z,20.85
2016-10-11T05:47:23.070Z,21.03
2016-10-11T05:48:23.281Z,20.85
2016-10-11T05:49:23.042Z,20.96
2016-10-11T05:50:22.713Z,20.81
2016-10-11T05:51:23.010Z,20.85
2016-10-11T05:52:22.998Z,20.85
2016-10-11T05:53:22.979Z,20.83
2016-10-11T05:54:22.958Z,20.93
2016-10-11T05:55:22.951Z,20.87
2016-10-11T05:56:22.928Z,20.94
2016-10-11T05:57:22.918Z,21.01
2016-10-11T05:58:22.895Z,20.94
2016-10-11T05:59:22.880Z,20.85
2016-10-11T06:00:22.565Z,20.96
2016-10-11T06:01:22.847Z,20.9
2016-10-11T06:02:22.836Z,20.93
2016-10-11T06:03:22.819Z,20.85
2016-10-11T06:04:22.800Z,20.9
2016-10-11T06:05:22.797Z,20.91
2016-10-11T06:06:22.775Z,20.94
2016-10-11T06:07:22.763Z,20.98
2016-10-11T06:08:22.741Z,20.88
2016-10-11T06:09:22.720Z,20.96
2016-10-11T06:10:22.705Z,20.85
2016-10-11T06:11:22.694Z,20.9
2016-10-11T06:12:22.678Z,20.9
2016-10-11T06:13:22.655Z,20.97
2016-10-11T06:14:22.648Z,20.96
2016-10-11T06:15:22.629Z,20.98
2016-10-11T06:16:22.619Z,20.97
2016-10-11T06:17:22.594Z,20.97
2016-10-11T06:18:22.265Z,20.96
2016-10-11T06:19:22.567Z,21
2016-10-11T06:20:22.553Z,20.96
2016-10-11T06:21:22.541Z,20.98
2016-10-11T06:22:22.514Z,20.96
2016-10-11T06:23:22.505Z,20.9
2016-10-11T06:24:22.484Z,20.97
2016-10-11T06:25:22.470Z,20.96
2016-10-11T06:26:22.459Z,20.97
2016-10-11T06:27:22.436Z,20.93
2016-10-11T06:28:22.423Z,20.94
2016-10-11T06:29:22.404Z,20.9
2016-10-11T06:30:22.392Z,20.93
2016-10-11T06:31:22.378Z,20.87
2016-10-11T06:32:22.358Z,20.91
2016-10-11T06:33:22.355Z,20.88
2016-10-11T06:34:22.005Z,20.97
2016-10-11T06:35:22.322Z,20.93
2016-10-11T06:36:22.293Z,20.91
2016-10-11T06:37:22.283Z,20.9
2016-10-11T06:38:22.265Z,20.83
2016-10-11T06:39:22.249Z,20.83
2016-10-11T06:40:21.920Z,20.88
2016-10-11T06:41:22.228Z,20.85
2016-10-11T06:42:21.884Z,20.87
2016-10-11T06:43:22.191Z,20.88
2016-10-11T06:44:22.177Z,20.93
2016-10-11T06:45:22.158Z,20.91
2016-10-11T06:46:22.129Z,20.85
2016-10-11T06:47:22.126Z,20.94
2016-10-11T06:48:22.107Z,20.97
2016-10-11T06:49:22.097Z,20.87
2016-10-11T06:50:22.085Z,20.9
2016-10-11T06:51:22.059Z,20.91
2016-10-11T06:52:22.053Z,20.91
2016-10-11T06:53:21.708Z,20.85
2016-10-11T06:54:22.015Z,20.83
2016-10-11T06:55:21.998Z,20.76
2016-10-11T06:56:21.984Z,20.76
2016-10-11T06:57:21.969Z,20.72
2016-10-11T06:58:21.948Z,20.76
2016-10-11T06:59:21.957Z,20.73
2016-10-11T07:00:21.937Z,20.73
2016-10-11T07:01:21.588Z,20.79
2016-10-11T07:02:21.883Z,20.75
2016-10-11T07:03:21.878Z,20.73
2016-10-11T07:04:21.537Z,20.61
2016-10-11T07:05:21.524Z,20.48
2016-10-11T07:06:22.071Z,20.53
2016-10-11T07:07:21.807Z,20.44
2016-10-11T07:08:21.791Z,20.35
2016-10-11T07:09:21.776Z,20.3
2016-10-11T07:10:21.763Z,20.46
2016-10-11T07:11:21.742Z,20.51
2016-10-11T07:12:21.730Z,20.69
2016-10-11T07:13:21.709Z,20.64
2016-10-11T07:14:21.696Z,20.66
2016-10-11T07:15:21.681Z,20.76
2016-10-11T07:16:21.667Z,20.79
2016-10-11T07:17:21.649Z,20.79
2016-10-11T07:18:21.635Z,20.78
2016-10-11T07:19:21.615Z,20.75
2016-10-11T07:20:21.297Z,20.83
2016-10-11T07:21:21.586Z,20.79
2016-10-11T07:22:21.573Z,20.87
2016-10-11T07:23:21.557Z,20.9
2016-10-11T07:24:21.220Z,20.87
2016-10-11T07:25:21.525Z,20.88
2016-10-11T07:26:21.506Z,20.91
2016-10-11T07:27:21.487Z,20.82
2016-10-11T07:28:21.479Z,20.88
2016-10-11T07:29:21.158Z,20.85
2016-10-11T07:30:21.448Z,20.9
2016-10-11T07:31:21.426Z,20.93
2016-10-11T07:32:21.418Z,20.85
2016-10-11T07:33:21.399Z,20.93
2016-10-11T07:34:21.388Z,20.9
2016-10-11T07:35:21.363Z,20.88
2016-10-11T07:36:21.349Z,20.96
2016-10-11T07:37:21.337Z,20.85
2016-10-11T07:38:21.319Z,20.94
2016-10-11T07:39:21.299Z,20.85
2016-10-11T07:40:21.283Z,20.97
2016-10-11T07:41:21.271Z,20.93
2016-10-11T07:42:21.259Z,20.83
2016-10-11T07:43:21.247Z,20.94
2016-10-11T07:44:21.220Z,20.87
2016-10-11T07:45:21.203Z,20.85
2016-10-11T07:46:21.185Z,20.87
2016-10-11T07:47:21.179Z,20.85
2016-10-11T07:48:21.165Z,21
2016-10-11T07:49:21.138Z,20.91
2016-10-11T07:50:21.127Z,20.91
2016-10-11T07:51:21.112Z,20.96
2016-10-11T07:52:20.774Z,20.97
2016-10-11T07:53:21.077Z,21.05
2016-10-11T07:54:21.072Z,20.93
2016-10-11T07:55:21.051Z,20.94
2016-10-11T07:56:21.033Z,20.98
2016-10-11T07:57:21.014Z,21
2016-10-11T07:58:21.004Z,20.93
2016-10-11T07:59:20.988Z,20.9
2016-10-11T08:00:20.975Z,20.96
2016-10-11T08:01:20.948Z,20.93
2016-10-11T08:02:20.939Z,20.94
2016-10-11T08:03:20.921Z,20.9
2016-10-11T08:04:20.911Z,20.9
2016-10-11T08:05:20.891Z,20.35
2016-10-11T08:06:20.867Z,19.15
2016-10-11T08:07:20.548Z,17.96
2016-10-11T08:08:20.837Z,17.18
2016-10-11T08:09:20.822Z,16.66
2016-10-11T08:10:20.807Z,16.66
2016-10-11T08:11:20.795Z,16.17
2016-10-11T08:12:20.456Z,16.18
2016-10-11T08:13:20.763Z,16.81
2016-10-11T08:14:20.752Z,17.65
2016-10-11T08:15:20.733Z,18.23
2016-10-11T08:16:20.732Z,18.72
2016-10-11T08:17:20.385Z,19.21
2016-10-11T08:18:20.389Z,19.53
2016-10-11T08:19:20.364Z,19.7
2016-10-11T08:20:20.345Z,19.82
2016-10-11T08:21:20.328Z,20.08
2016-10-11T08:22:19.989Z,20.13
2016-10-11T08:23:20.585Z,20.16
2016-10-11T08:24:20.266Z,20.27
2016-10-11T08:25:20.569Z,20.34
2016-10-11T08:26:20.552Z,20.48
2016-10-11T08:27:20.539Z,20.48
2016-10-11T08:28:20.525Z,20.5
2016-10-11T08:29:20.500Z,20.51
2016-10-11T08:30:20.493Z,20.54
2016-10-11T08:31:20.476Z,20.56
2016-10-11T08:32:20.469Z,20.57
2016-10-11T08:33:20.127Z,20.61
2016-10-11T08:34:20.420Z,20.61
2016-10-11T08:35:20.409Z,20.64
2016-10-11T08:36:20.076Z,20.64
2016-10-11T08:37:20.060Z,20.72
2016-10-11T08:38:20.358Z,20.69
2016-10-11T08:39:20.028Z,20.75
2016-10-11T08:40:20.327Z,20.76
2016-10-11T08:41:20.314Z,20.76
2016-10-11T08:42:19.982Z,20.78
2016-10-11T08:43:20.269Z,20.79
2016-10-11T08:44:20.262Z,20.71
2016-10-11T08:45:20.243Z,20.71
2016-10-11T08:46:20.225Z,20.78
2016-10-11T08:47:20.210Z,20.73
2016-10-11T08:48:20.197Z,20.75
2016-10-11T08:49:20.182Z,20.76
2016-10-11T08:50:20.169Z,20.66
2016-10-11T08:51:20.147Z,20.75
2016-10-11T08:52:20.135Z,20.73
2016-10-11T08:53:20.120Z,20.75
2016-10-11T08:54:20.104Z,20.76
2016-10-11T08:55:20.083Z,20.82
2016-10-11T08:56:20.082Z,20.85
2016-10-11T08:57:20.055Z,20.79
2016-10-11T08:58:20.039Z,20.83
2016-10-11T08:59:19.710Z,20.81
2016-10-11T09:00:20.003Z,20.83
2016-10-11T09:01:19.672Z,20.82
2016-10-11T09:02:19.973Z,20.85
2016-10-11T09:03:19.957Z,20.9
2016-10-11T09:04:19.944Z,20.88
2016-10-11T09:05:19.937Z,20.87
2016-10-11T09:06:19.918Z,20.91
2016-10-11T09:07:19.896Z,20.82
2016-10-11T09:08:19.877Z,20.87
2016-10-11T09:09:19.872Z,20.87
2016-10-11T09:10:19.845Z,20.96
2016-10-11T09:11:19.846Z,20.83
2016-10-11T09:12:19.814Z,20.9
2016-10-11T09:13:19.487Z,20.93
2016-10-11T09:14:19.782Z,20.94
2016-10-11T09:15:19.773Z,20.94
2016-10-11T09:16:19.765Z,20.91
2016-10-11T09:17:19.414Z,20.91
2016-10-11T09:18:19.724Z,20.96
2016-10-11T09:19:19.702Z,20.94
2016-10-11T09:20:19.373Z,20.97
2016-10-11T09:21:19.671Z,20.88
2016-10-11T09:22:19.648Z,20.83
2016-10-11T09:23:19.655Z,20.93
2016-10-11T09:24:19.624Z,20.82
2016-10-11T09:25:19.609Z,20.9
2016-10-11T09:26:19.591Z,20.93
2016-10-11T09:27:19.589Z,21
2016-10-11T09:28:19.573Z,21
2016-10-11T09:29:19.550Z,20.87
2016-10-11T09:30:19.539Z,20.97
2016-10-11T09:31:19.513Z,20.91
2016-10-11T09:32:19.508Z,20.87
2016-10-11T09:33:19.507Z,20.91
2016-10-11T09:34:19.466Z,20.9
2016-10-11T09:35:19.453Z,20.83
2016-10-11T09:36:19.437Z,20.88
2016-10-11T09:37:19.106Z,20.87
2016-10-11T09:38:19.395Z,20.76
2016-10-11T09:39:19.412Z,20.88
2016-10-11T09:40:19.363Z,20.88
2016-10-11T09:41:19.358Z,20.85
2016-10-11T09:42:19.340Z,20.88
2016-10-11T09:43:19.319Z,20.91
2016-10-11T09:44:19.304Z,20.85
2016-10-11T09:45:19.283Z,20.91
2016-10-11T09:46:19.279Z,20.98
2016-10-11T09:47:19.256Z,20.85
2016-10-11T09:48:19.245Z,20.87
2016-10-11T09:49:19.226Z,20.9
2016-10-11T09:50:19.211Z,20.91
2016-10-11T09:51:19.189Z,20.85
2016-10-11T09:52:19.182Z,20.82
2016-10-11T09:53:19.165Z,20.93
2016-10-11T09:54:19.146Z,20.83
2016-10-11T09:55:18.819Z,20.83
2016-10-11T09:56:19.118Z,20.97
2016-10-11T09:57:19.100Z,20.79
2016-10-11T09:58:19.089Z,20.83
2016-10-11T09:59:19.078Z,20.85
2016-10-11T10:00:19.071Z,20.88
2016-10-11T10:01:19.037Z,20.93
2016-10-11T10:02:19.026Z,20.88
2016-10-11T10:03:19.007Z,20.88
2016-10-11T10:04:18.994Z,20.9
2016-10-11T10:05:18.975Z,20.9
2016-10-11T10:06:18.961Z,20.88
2016-10-11T10:07:18.940Z,20.93
2016-10-11T10:08:18.941Z,20.83
2016-10-11T10:09:18.911Z,20.88
2016-10-11T10:10:18.890Z,20.88
2016-10-11T10:11:18.885Z,20.9
2016-10-11T10:12:18.868Z,20.87
2016-10-11T10:13:18.851Z,20.9
2016-10-11T10:14:18.831Z,20.87
2016-10-11T10:15:18.819Z,20.88
2016-10-11T10:16:18.487Z,20.87
2016-10-11T10:17:18.792Z,20.83
2016-10-11T10:18:18.768Z,20.88
2016-10-11T10:19:18.747Z,20.9
2016-10-11T10:20:18.738Z,20.83
2016-10-11T10:21:18.411Z,20.88
2016-10-11T10:22:18.711Z,20.83
2016-10-11T10:23:18.687Z,20.87
2016-10-11T10:24:18.683Z,20.78
2016-10-11T10:25:18.678Z,20.87
2016-10-11T10:26:18.645Z,20.83
2016-10-11T10:27:18.635Z,20.81
2016-10-11T10:28:18.615Z,20.81
2016-10-11T10:29:18.611Z,20.82
2016-10-11T10:30:18.579Z,20.73
2016-10-11T10:31:18.573Z,20.71
2016-10-11T10:32:18.546Z,20.73
2016-10-11T10:33:18.529Z,20.69
2016-10-11T10:34:18.514Z,20.68
2016-10-11T10:35:18.503Z,20.76
2016-10-11T10:36:18.487Z,20.75
2016-10-11T10:37:18.154Z,20.75
2016-10-11T10:38:18.461Z,20.75
2016-10-11T10:39:18.439Z,20.71
2016-10-11T10:40:18.442Z,20.75
2016-10-11T10:41:18.407Z,20.79
2016-10-11T10:42:18.390Z,20.69
2016-10-11T10:43:18.380Z,20.75
2016-10-11T10:44:18.044Z,20.79
2016-10-11T10:45:17.714Z,20.72
2016-10-11T10:46:18.321Z,20.79
2016-10-11T10:47:18.620Z,20.71
2016-10-11T10:48:18.294Z,20.75
2016-10-11T10:49:18.278Z,20.75
2016-10-11T10:50:17.941Z,20.66
2016-10-11T10:51:18.251Z,20.73
2016-10-11T10:52:18.230Z,20.76
2016-10-11T10:53:18.213Z,20.71
2016-10-11T10:54:18.211Z,20.66
2016-10-11T10:55:18.185Z,20.68
2016-10-11T10:56:18.165Z,20.63
2016-10-11T10:57:18.157Z,20.68
2016-10-11T10:58:18.147Z,20.63
2016-10-11T10:59:18.122Z,20.69
2016-10-11T11:00:18.102Z,20.61
2016-10-11T11:01:18.081Z,20.73
2016-10-11T11:02:18.080Z,20.69
2016-10-11T11:03:18.057Z,20.64
2016-10-11T11:04:18.043Z,20.68
2016-10-11T11:05:18.021Z,20.68
2016-10-11T11:06:18.007Z,20.64
2016-10-11T11:07:17.994Z,20.66
2016-10-11T11:08:17.982Z,20.57
2016-10-11T11:09:17.958Z,20.57
2016-10-11T11:10:17.624Z,20.58
2016-10-11T11:11:17.933Z,20.6
2016-10-11T11:12:17.918Z,20.61
2016-10-11T11:13:17.897Z,20.6
2016-10-11T11:14:17.888Z,20.6
2016-10-11T11:15:17.870Z,20.66
2016-10-11T11:16:17.853Z,20.64
2016-10-11T11:17:17.832Z,20.58
2016-10-11T11:18:17.817Z,20.61
2016-10-11T11:19:17.797Z,20.61
2016-10-11T11:20:17.784Z,20.57
2016-10-11T11:21:17.768Z,20.5
2016-10-11T11:22:17.748Z,20.63
2016-10-11T11:23:17.786Z,20.61
2016-10-11T11:24:17.415Z,20.48
2016-10-11T11:25:17.708Z,20.58
2016-10-11T11:26:17.687Z,20.57
2016-10-11T11:27:17.676Z,20.61
2016-10-11T11:28:17.656Z,20.48
2016-10-11T11:29:17.331Z,20.51
2016-10-11T11:30:17.638Z,20.51
2016-10-11T11:31:17.607Z,20.46
2016-10-11T11:32:17.594Z,20.57
2016-10-11T11:33:17.583Z,20.54
2016-10-11T11:34:17.564Z,20.51
2016-10-11T11:35:17.550Z,20.51
2016-10-11T11:36:17.530Z,20.57
2016-10-11T11:37:17.509Z,20.6
2016-10-11T11:38:17.184Z,20.5
2016-10-11T11:39:17.163Z,20.61
2016-10-11T11:40:17.460Z,20.54
2016-10-11T11:41:17.452Z,20.6
2016-10-11T11:42:17.431Z,20.6
2016-10-11T11:43:17.423Z,20.63
2016-10-11T11:44:17.403Z,20.69
2016-10-11T11:45:17.396Z,20.68
2016-10-11T11:46:17.058Z,20.68
2016-10-11T11:47:17.354Z,20.63
2016-10-11T11:48:17.336Z,20.71
2016-10-11T11:49:17.320Z,20.64
2016-10-11T11:50:17.311Z,20.64
2016-10-11T11:51:17.290Z,20.66
2016-10-11T11:52:17.287Z,20.64
2016-10-11T11:53:17.258Z,20.69
2016-10-11T11:54:16.929Z,20.68
2016-10-11T11:55:17.220Z,20.69
2016-10-11T11:56:17.214Z,20.66
2016-10-11T11:57:17.197Z,20.68
2016-10-11T11:58:17.172Z,20.72
2016-10-11T11:59:17.161Z,20.68
2016-10-11T12:00:17.137Z,20.66
2016-10-11T12:01:17.134Z,20.71
2016-10-11T12:02:16.799Z,20.63
2016-10-11T12:03:17.100Z,20.69
2016-10-11T12:04:17.084Z,20.63
2016-10-11T12:05:17.069Z,20.68
2016-10-11T12:06:17.048Z,20.61
2016-10-11T12:07:17.023Z,20.61
2016-10-11T12:08:17.018Z,20.57
2016-10-11T12:09:17.001Z,20.56
2016-10-11T12:10:16.990Z,20.61
2016-10-11T12:11:16.972Z,20.61
2016-10-11T12:12:16.949Z,20.58
2016-10-11T12:13:16.941Z,20.57
2016-10-11T12:14:16.920Z,20.58
2016-10-11T12:15:16.903Z,20.61
2016-10-11T12:16:16.890Z,20.72
2016-10-11T12:17:16.881Z,20.6
2016-10-11T12:18:16.855Z,20.68
2016-10-11T12:19:16.848Z,20.66
2016-10-11T12:20:16.823Z,20.71
2016-10-11T12:21:16.826Z,20.71
2016-10-11T12:22:16.791Z,20.63
2016-10-11T12:23:16.781Z,20.73
2016-10-11T12:24:16.762Z,20.76
2016-10-11T12:25:16.757Z,20.68
2016-10-11T12:26:16.414Z,20.76
2016-10-11T12:27:16.712Z,20.72
2016-10-11T12:28:16.697Z,20.73
2016-10-11T12:29:16.680Z,20.76
2016-10-11T12:30:16.671Z,20.76
2016-10-11T12:31:16.647Z,20.79
2016-10-11T12:32:16.638Z,20.72
2016-10-11T12:33:16.617Z,20.78
2016-10-11T12:34:16.602Z,20.82
2016-10-11T12:35:16.595Z,20.83
2016-10-11T12:36:16.582Z,20.9
2016-10-11T12:37:16.552Z,20.9
2016-10-11T12:38:16.542Z,20.83
2016-10-11T12:39:16.522Z,20.91
2016-10-11T12:40:16.180Z,20.82
2016-10-11T12:41:16.493Z,20.83
2016-10-11T12:42:16.156Z,20.81
2016-10-11T12:43:16.461Z,20.76
2016-10-11T12:44:16.440Z,20.79
2016-10-11T12:45:16.420Z,20.76
2016-10-11T12:46:16.091Z,20.85
2016-10-11T12:47:16.394Z,20.79
2016-10-11T12:48:16.375Z,20.82
2016-10-11T12:49:16.365Z,20.81
2016-10-11T12:50:16.344Z,20.72
2016-10-11T12:51:16.330Z,20.85
2016-10-11T12:52:16.314Z,20.81
2016-10-11T12:53:16.299Z,20.81
2016-10-11T12:54:16.295Z,20.76
2016-10-11T12:55:16.268Z,20.75
2016-10-11T12:56:16.259Z,20.79